sensor_id;sensor_type;location;lat;lon;timestamp;temperature;humidity
14049;DHT22;7099;53.922;10.728;2023-03-14T00:03:23;11.10;65.50
14049;DHT22;7099;53.922;10.728;2023-03-14T00:07:29;11.20;65.70
14049;DHT22;7099;53.922;10.728;2023-03-14T00:11:38;11.20;66.00
14049;DHT22;7099;53.922;10.728;2023-03-14T00:15:44;11.10;66.10
14049;DHT22;7099;53.922;10.728;2023-03-14T00:19:50;11.10;66.40
14049;DHT22;7099;53.922;10.728;2023-03-14T00:23:57;11.10;66.30
14049;DHT22;7099;53.922;10.728;2023-03-14T00:28:03;11.10;66.50
14049;DHT22;7099;53.922;10.728;2023-03-14T00:32:09;11.10;66.60
14049;DHT22;7099;53.922;10.728;2023-03-14T00:36:16;11.10;67.00
14049;DHT22;7099;53.922;10.728;2023-03-14T00:40:22;11.10;68.00
14049;DHT22;7099;53.922;10.728;2023-03-14T00:44:27;11.10;67.10
14049;DHT22;7099;53.922;10.728;2023-03-14T00:48:33;11.10;67.20
14049;DHT22;7099;53.922;10.728;2023-03-14T00:52:39;11.00;67.40
14049;DHT22;7099;53.922;10.728;2023-03-14T00:56:45;11.00;67.30
14049;DHT22;7099;53.922;10.728;2023-03-14T01:00:50;11.00;67.60
14049;DHT22;7099;53.922;10.728;2023-03-14T01:04:56;11.00;68.00
14049;DHT22;7099;53.922;10.728;2023-03-14T01:09:02;10.90;68.10
14049;DHT22;7099;53.922;10.728;2023-03-14T01:13:08;10.90;68.50
14049;DHT22;7099;53.922;10.728;2023-03-14T01:17:14;10.90;68.90
14049;DHT22;7099;53.922;10.728;2023-03-14T01:21:23;11.00;69.40
14049;DHT22;7099;53.922;10.728;2023-03-14T01:25:33;10.90;69.00
14049;DHT22;7099;53.922;10.728;2023-03-14T01:29:38;10.90;69.20
14049;DHT22;7099;53.922;10.728;2023-03-14T01:33:45;10.90;69.20
14049;DHT22;7099;53.922;10.728;2023-03-14T01:37:51;11.00;69.40
14049;DHT22;7099;53.922;10.728;2023-03-14T01:41:56;11.00;69.00
14049;DHT22;7099;53.922;10.728;2023-03-14T01:50:12;11.00;68.50
14049;DHT22;7099;53.922;10.728;2023-03-14T01:54:25;11.00;68.20
14049;DHT22;7099;53.922;10.728;2023-03-14T01:58:33;11.00;68.20
14049;DHT22;7099;53.922;10.728;2023-03-14T02:02:47;11.10;68.00
14049;DHT22;7099;53.922;10.728;2023-03-14T02:07:09;11.10;67.80
14049;DHT22;7099;53.922;10.728;2023-03-14T02:11:17;11.10;67.70
14049;DHT22;7099;53.922;10.728;2023-03-14T02:15:23;11.10;67.40
14049;DHT22;7099;53.922;10.728;2023-03-14T02:24:12;11.20;67.60
14049;DHT22;7099;53.922;10.728;2023-03-14T02:28:23;11.20;67.50
14049;DHT22;7099;53.922;10.728;2023-03-14T02:32:34;11.20;67.40
14049;DHT22;7099;53.922;10.728;2023-03-14T02:36:41;11.20;67.80
14049;DHT22;7099;53.922;10.728;2023-03-14T02:40:47;11.20;68.00
14049;DHT22;7099;53.922;10.728;2023-03-14T02:45:42;11.20;68.20
14049;DHT22;7099;53.922;10.728;2023-03-14T02:49:21;11.20;68.50
14049;DHT22;7099;53.922;10.728;2023-03-14T02:53:33;11.20;69.30
14049;DHT22;7099;53.922;10.728;2023-03-14T02:57:39;11.20;69.00
14049;DHT22;7099;53.922;10.728;2023-03-14T03:01:45;11.20;69.10
14049;DHT22;7099;53.922;10.728;2023-03-14T03:05:52;11.20;69.40
14049;DHT22;7099;53.922;10.728;2023-03-14T03:09:59;11.10;69.50
14049;DHT22;7099;53.922;10.728;2023-03-14T03:14:05;11.10;70.40
14049;DHT22;7099;53.922;10.728;2023-03-14T03:18:10;11.10;69.80
14049;DHT22;7099;53.922;10.728;2023-03-14T03:22:16;11.20;69.90
14049;DHT22;7099;53.922;10.728;2023-03-14T03:26:21;11.10;70.00
14049;DHT22;7099;53.922;10.728;2023-03-14T03:30:27;11.10;70.10
14049;DHT22;7099;53.922;10.728;2023-03-14T03:34:33;11.00;70.10
14049;DHT22;7099;53.922;10.728;2023-03-14T03:38:38;11.00;70.00
14049;DHT22;7099;53.922;10.728;2023-03-14T03:42:44;11.00;70.10
14049;DHT22;7099;53.922;10.728;2023-03-14T03:46:49;11.00;70.00
14049;DHT22;7099;53.922;10.728;2023-03-14T03:50:55;11.00;70.00
14049;DHT22;7099;53.922;10.728;2023-03-14T03:55:00;11.00;70.00
14049;DHT22;7099;53.922;10.728;2023-03-14T03:59:06;11.00;70.20
14049;DHT22;7099;53.922;10.728;2023-03-14T04:03:11;11.00;70.20
14049;DHT22;7099;53.922;10.728;2023-03-14T04:07:17;11.00;70.30
14049;DHT22;7099;53.922;10.728;2023-03-14T04:11:23;10.90;70.40
14049;DHT22;7099;53.922;10.728;2023-03-14T04:15:28;11.00;70.40
14049;DHT22;7099;53.922;10.728;2023-03-14T04:19:34;11.00;70.30
14049;DHT22;7099;53.922;10.728;2023-03-14T04:23:39;11.00;70.20
14049;DHT22;7099;53.922;10.728;2023-03-14T04:27:46;10.90;70.40
14049;DHT22;7099;53.922;10.728;2023-03-14T04:31:52;11.00;70.30
14049;DHT22;7099;53.922;10.728;2023-03-14T04:35:58;10.90;70.20
14049;DHT22;7099;53.922;10.728;2023-03-14T04:40:03;10.90;70.30
14049;DHT22;7099;53.922;10.728;2023-03-14T04:44:11;10.90;70.30
14049;DHT22;7099;53.922;10.728;2023-03-14T04:48:17;10.80;70.30
14049;DHT22;7099;53.922;10.728;2023-03-14T04:52:22;10.80;70.40
14049;DHT22;7099;53.922;10.728;2023-03-14T04:56:27;10.80;70.60
14049;DHT22;7099;53.922;10.728;2023-03-14T05:00:33;10.80;70.70
14049;DHT22;7099;53.922;10.728;2023-03-14T05:04:39;10.80;70.90
14049;DHT22;7099;53.922;10.728;2023-03-14T05:08:45;11.00;70.50
14049;DHT22;7099;53.922;10.728;2023-03-14T05:12:51;10.90;70.60
14049;DHT22;7099;53.922;10.728;2023-03-14T05:16:57;10.90;70.90
14049;DHT22;7099;53.922;10.728;2023-03-14T05:21:03;10.90;70.90
14049;DHT22;7099;53.922;10.728;2023-03-14T05:25:09;10.90;70.80
14049;DHT22;7099;53.922;10.728;2023-03-14T05:29:15;10.90;70.80
14049;DHT22;7099;53.922;10.728;2023-03-14T05:33:20;10.90;70.70
14049;DHT22;7099;53.922;10.728;2023-03-14T05:37:26;11.00;70.60
14049;DHT22;7099;53.922;10.728;2023-03-14T05:41:31;11.00;71.20
14049;DHT22;7099;53.922;10.728;2023-03-14T05:45:37;11.00;70.70
14049;DHT22;7099;53.922;10.728;2023-03-14T05:49:42;11.00;70.60
14049;DHT22;7099;53.922;10.728;2023-03-14T05:53:48;11.00;70.30
14049;DHT22;7099;53.922;10.728;2023-03-14T05:57:54;11.00;69.00
14049;DHT22;7099;53.922;10.728;2023-03-14T06:01:59;10.90;68.20
14049;DHT22;7099;53.922;10.728;2023-03-14T06:06:05;10.90;67.90
14049;DHT22;7099;53.922;10.728;2023-03-14T06:10:11;10.90;68.60
14049;DHT22;7099;53.922;10.728;2023-03-14T06:14:17;10.70;69.40
14049;DHT22;7099;53.922;10.728;2023-03-14T06:18:23;10.70;70.40
14049;DHT22;7099;53.922;10.728;2023-03-14T06:22:28;10.60;70.90
14049;DHT22;7099;53.922;10.728;2023-03-14T06:26:34;10.50;71.90
14049;DHT22;7099;53.922;10.728;2023-03-14T06:30:39;10.50;71.50
14049;DHT22;7099;53.922;10.728;2023-03-14T06:34:45;10.50;71.70
14049;DHT22;7099;53.922;10.728;2023-03-14T06:38:50;10.50;71.90
14049;DHT22;7099;53.922;10.728;2023-03-14T06:42:56;10.40;72.20
14049;DHT22;7099;53.922;10.728;2023-03-14T06:47:02;10.40;72.60
14049;DHT22;7099;53.922;10.728;2023-03-14T06:51:07;10.40;73.00
14049;DHT22;7099;53.922;10.728;2023-03-14T06:55:14;10.40;73.20
14049;DHT22;7099;53.922;10.728;2023-03-14T06:59:20;10.40;73.40
14049;DHT22;7099;53.922;10.728;2023-03-14T07:03:25;10.40;73.70
14049;DHT22;7099;53.922;10.728;2023-03-14T07:07:31;10.40;73.70
14049;DHT22;7099;53.922;10.728;2023-03-14T07:11:37;10.50;74.00
14049;DHT22;7099;53.922;10.728;2023-03-14T07:15:42;10.50;74.10
14049;DHT22;7099;53.922;10.728;2023-03-14T07:19:50;10.50;74.20
14049;DHT22;7099;53.922;10.728;2023-03-14T07:23:55;10.50;74.40
14049;DHT22;7099;53.922;10.728;2023-03-14T07:28:01;10.50;74.90
14049;DHT22;7099;53.922;10.728;2023-03-14T07:32:06;10.40;75.20
14049;DHT22;7099;53.922;10.728;2023-03-14T07:36:13;10.40;75.70
14049;DHT22;7099;53.922;10.728;2023-03-14T07:40:18;10.40;75.70
14049;DHT22;7099;53.922;10.728;2023-03-14T07:44:24;10.40;75.40
14049;DHT22;7099;53.922;10.728;2023-03-14T07:48:30;10.50;75.20
14049;DHT22;7099;53.922;10.728;2023-03-14T07:52:35;10.60;74.70
14049;DHT22;7099;53.922;10.728;2023-03-14T07:56:41;10.60;74.20
14049;DHT22;7099;53.922;10.728;2023-03-14T08:00:47;10.70;74.20
14049;DHT22;7099;53.922;10.728;2023-03-14T08:04:52;10.80;73.80
14049;DHT22;7099;53.922;10.728;2023-03-14T08:08:58;10.80;73.80
14049;DHT22;7099;53.922;10.728;2023-03-14T08:13:03;10.90;73.60
14049;DHT22;7099;53.922;10.728;2023-03-14T08:17:09;10.90;72.90
14049;DHT22;7099;53.922;10.728;2023-03-14T08:21:14;10.90;72.70
14049;DHT22;7099;53.922;10.728;2023-03-14T08:25:20;10.90;72.40
14049;DHT22;7099;53.922;10.728;2023-03-14T08:29:25;11.00;71.80
14049;DHT22;7099;53.922;10.728;2023-03-14T08:33:31;11.10;71.60
14049;DHT22;7099;53.922;10.728;2023-03-14T08:37:37;11.20;71.30
14049;DHT22;7099;53.922;10.728;2023-03-14T08:41:42;11.30;71.70
14049;DHT22;7099;53.922;10.728;2023-03-14T08:45:49;11.40;70.80
14049;DHT22;7099;53.922;10.728;2023-03-14T08:49:55;11.30;69.90
14049;DHT22;7099;53.922;10.728;2023-03-14T08:54:00;11.40;70.00
14049;DHT22;7099;53.922;10.728;2023-03-14T08:58:06;11.50;69.90
14049;DHT22;7099;53.922;10.728;2023-03-14T09:02:11;11.60;69.40
14049;DHT22;7099;53.922;10.728;2023-03-14T09:06:18;11.60;69.20
14049;DHT22;7099;53.922;10.728;2023-03-14T09:10:23;11.70;68.90
14049;DHT22;7099;53.922;10.728;2023-03-14T09:14:28;11.80;68.60
14049;DHT22;7099;53.922;10.728;2023-03-14T09:18:34;11.80;68.20
14049;DHT22;7099;53.922;10.728;2023-03-14T09:22:40;11.90;68.10
14049;DHT22;7099;53.922;10.728;2023-03-14T09:26:45;12.00;67.50
14049;DHT22;7099;53.922;10.728;2023-03-14T09:30:51;11.90;66.80
14049;DHT22;7099;53.922;10.728;2023-03-14T09:34:57;11.90;67.10
14049;DHT22;7099;53.922;10.728;2023-03-14T09:39:02;11.90;66.80
14049;DHT22;7099;53.922;10.728;2023-03-14T09:43:11;12.00;66.80
14049;DHT22;7099;53.922;10.728;2023-03-14T09:47:19;11.90;67.10
14049;DHT22;7099;53.922;10.728;2023-03-14T09:51:26;11.90;67.40
14049;DHT22;7099;53.922;10.728;2023-03-14T09:55:32;11.90;68.00
14049;DHT22;7099;53.922;10.728;2023-03-14T09:59:43;11.90;68.20
14049;DHT22;7099;53.922;10.728;2023-03-14T10:03:51;12.00;68.40
14049;DHT22;7099;53.922;10.728;2023-03-14T10:07:59;11.90;68.30
14049;DHT22;7099;53.922;10.728;2023-03-14T10:12:07;11.90;68.50
14049;DHT22;7099;53.922;10.728;2023-03-14T10:16:13;11.90;68.60
14049;DHT22;7099;53.922;10.728;2023-03-14T10:20:37;11.90;68.50
14049;DHT22;7099;53.922;10.728;2023-03-14T10:24:53;11.90;68.80
14049;DHT22;7099;53.922;10.728;2023-03-14T10:29:03;11.60;64.40
14049;DHT22;7099;53.922;10.728;2023-03-14T10:37:24;9.70;63.50
14049;DHT22;7099;53.922;10.728;2023-03-14T10:41:32;9.20;64.40
14049;DHT22;7099;53.922;10.728;2023-03-14T10:45:41;8.70;64.60
14049;DHT22;7099;53.922;10.728;2023-03-14T10:49:48;8.40;64.20
14049;DHT22;7099;53.922;10.728;2023-03-14T10:54:00;8.10;65.40
14049;DHT22;7099;53.922;10.728;2023-03-14T10:58:28;8.00;65.80
14049;DHT22;7099;53.922;10.728;2023-03-14T11:03:07;7.70;65.50
14049;DHT22;7099;53.922;10.728;2023-03-14T11:07:42;7.40;66.00
14049;DHT22;7099;53.922;10.728;2023-03-14T11:11:48;7.30;66.50
14049;DHT22;7099;53.922;10.728;2023-03-14T11:20:42;7.00;66.40
14049;DHT22;7099;53.922;10.728;2023-03-14T11:29:31;6.80;67.10
14049;DHT22;7099;53.922;10.728;2023-03-14T11:34:01;6.60;65.40
14049;DHT22;7099;53.922;10.728;2023-03-14T11:38:50;6.40;65.90
14049;DHT22;7099;53.922;10.728;2023-03-14T11:43:11;6.30;67.90
14049;DHT22;7099;53.922;10.728;2023-03-14T11:47:25;6.50;68.10
14049;DHT22;7099;53.922;10.728;2023-03-14T11:51:39;6.50;67.90
14049;DHT22;7099;53.922;10.728;2023-03-14T11:55:48;6.40;67.20
14049;DHT22;7099;53.922;10.728;2023-03-14T12:09:00;6.50;67.70
14049;DHT22;7099;53.922;10.728;2023-03-14T12:13:13;6.50;68.00
14049;DHT22;7099;53.922;10.728;2023-03-14T12:17:40;6.70;67.60
14049;DHT22;7099;53.922;10.728;2023-03-14T12:22:01;6.60;65.60
14049;DHT22;7099;53.922;10.728;2023-03-14T12:30:39;6.60;65.50
14049;DHT22;7099;53.922;10.728;2023-03-14T12:34:46;6.60;64.50
14049;DHT22;7099;53.922;10.728;2023-03-14T12:43:33;6.60;64.00
14049;DHT22;7099;53.922;10.728;2023-03-14T12:51:46;6.60;63.60
14049;DHT22;7099;53.922;10.728;2023-03-14T12:56:06;6.70;63.40
14049;DHT22;7099;53.922;10.728;2023-03-14T13:00:34;6.70;63.50
14049;DHT22;7099;53.922;10.728;2023-03-14T13:04:49;6.70;63.00
14049;DHT22;7099;53.922;10.728;2023-03-14T13:08:57;6.60;62.60
14049;DHT22;7099;53.922;10.728;2023-03-14T13:13:22;6.60;62.90
14049;DHT22;7099;53.922;10.728;2023-03-14T13:17:33;6.70;62.80
14049;DHT22;7099;53.922;10.728;2023-03-14T13:21:41;6.70;62.30
14049;DHT22;7099;53.922;10.728;2023-03-14T13:25:47;6.70;62.70
14049;DHT22;7099;53.922;10.728;2023-03-14T13:29:52;6.80;62.80
14049;DHT22;7099;53.922;10.728;2023-03-14T13:34:00;6.80;61.90
14049;DHT22;7099;53.922;10.728;2023-03-14T13:38:19;6.80;62.20
14049;DHT22;7099;53.922;10.728;2023-03-14T13:42:28;6.80;62.00
14049;DHT22;7099;53.922;10.728;2023-03-14T13:46:35;6.80;61.80
14049;DHT22;7099;53.922;10.728;2023-03-14T13:50:59;6.70;61.30
14049;DHT22;7099;53.922;10.728;2023-03-14T13:55:14;6.70;60.70
14049;DHT22;7099;53.922;10.728;2023-03-14T13:59:33;6.70;60.80
14049;DHT22;7099;53.922;10.728;2023-03-14T14:03:41;6.80;60.20
14049;DHT22;7099;53.922;10.728;2023-03-14T14:07:49;6.90;61.00
14049;DHT22;7099;53.922;10.728;2023-03-14T14:12:16;6.90;59.20
14049;DHT22;7099;53.922;10.728;2023-03-14T14:16:25;7.00;57.60
14049;DHT22;7099;53.922;10.728;2023-03-14T14:20:40;6.90;55.20
14049;DHT22;7099;53.922;10.728;2023-03-14T14:24:50;6.90;54.00
14049;DHT22;7099;53.922;10.728;2023-03-14T14:29:04;6.90;54.80
14049;DHT22;7099;53.922;10.728;2023-03-14T14:33:21;7.00;54.60
14049;DHT22;7099;53.922;10.728;2023-03-14T14:37:31;6.90;50.80
14049;DHT22;7099;53.922;10.728;2023-03-14T14:41:40;6.90;51.30
14049;DHT22;7099;53.922;10.728;2023-03-14T14:45:49;6.90;51.30
14049;DHT22;7099;53.922;10.728;2023-03-14T14:50:02;6.90;49.30
14049;DHT22;7099;53.922;10.728;2023-03-14T14:54:31;6.90;48.90
14049;DHT22;7099;53.922;10.728;2023-03-14T14:58:45;6.90;48.10
14049;DHT22;7099;53.922;10.728;2023-03-14T15:02:58;6.90;48.30
14049;DHT22;7099;53.922;10.728;2023-03-14T15:07:04;6.90;46.80
14049;DHT22;7099;53.922;10.728;2023-03-14T15:11:23;6.90;47.20
14049;DHT22;7099;53.922;10.728;2023-03-14T15:15:30;7.00;46.90
14049;DHT22;7099;53.922;10.728;2023-03-14T15:19:36;6.90;48.30
14049;DHT22;7099;53.922;10.728;2023-03-14T15:23:41;6.90;48.40
14049;DHT22;7099;53.922;10.728;2023-03-14T15:27:47;6.80;48.90
14049;DHT22;7099;53.922;10.728;2023-03-14T15:31:52;6.70;49.40
14049;DHT22;7099;53.922;10.728;2023-03-14T15:35:58;6.80;49.90
14049;DHT22;7099;53.922;10.728;2023-03-14T15:40:06;6.80;50.00
14049;DHT22;7099;53.922;10.728;2023-03-14T15:44:18;6.80;49.60
14049;DHT22;7099;53.922;10.728;2023-03-14T15:48:24;6.80;49.60
14049;DHT22;7099;53.922;10.728;2023-03-14T15:52:29;6.80;48.90
14049;DHT22;7099;53.922;10.728;2023-03-14T15:56:36;6.70;48.30
14049;DHT22;7099;53.922;10.728;2023-03-14T16:00:44;6.70;48.00
14049;DHT22;7099;53.922;10.728;2023-03-14T16:04:50;6.70;47.70
14049;DHT22;7099;53.922;10.728;2023-03-14T16:08:55;6.70;48.40
14049;DHT22;7099;53.922;10.728;2023-03-14T16:13:02;6.70;48.80
14049;DHT22;7099;53.922;10.728;2023-03-14T16:17:08;6.50;49.30
14049;DHT22;7099;53.922;10.728;2023-03-14T16:21:17;6.60;49.90
14049;DHT22;7099;53.922;10.728;2023-03-14T16:25:24;6.60;50.20
14049;DHT22;7099;53.922;10.728;2023-03-14T16:29:30;6.70;50.40
14049;DHT22;7099;53.922;10.728;2023-03-14T16:33:37;6.60;47.90
14049;DHT22;7099;53.922;10.728;2023-03-14T16:37:43;6.60;48.80
14049;DHT22;7099;53.922;10.728;2023-03-14T16:41:49;6.60;49.20
14049;DHT22;7099;53.922;10.728;2023-03-14T16:45:57;6.70;49.60
14049;DHT22;7099;53.922;10.728;2023-03-14T16:50:04;6.70;49.00
14049;DHT22;7099;53.922;10.728;2023-03-14T16:54:10;6.60;48.60
14049;DHT22;7099;53.922;10.728;2023-03-14T16:58:16;6.50;48.90
14049;DHT22;7099;53.922;10.728;2023-03-14T17:02:21;6.50;49.40
14049;DHT22;7099;53.922;10.728;2023-03-14T17:06:27;6.40;48.60
14049;DHT22;7099;53.922;10.728;2023-03-14T17:10:33;6.30;48.20
14049;DHT22;7099;53.922;10.728;2023-03-14T17:14:39;6.10;48.20
14049;DHT22;7099;53.922;10.728;2023-03-14T17:18:44;6.00;49.10
14049;DHT22;7099;53.922;10.728;2023-03-14T17:22:50;5.90;49.60
14049;DHT22;7099;53.922;10.728;2023-03-14T17:26:55;5.80;50.30
14049;DHT22;7099;53.922;10.728;2023-03-14T17:31:06;5.70;50.10
14049;DHT22;7099;53.922;10.728;2023-03-14T17:35:13;5.60;50.50
14049;DHT22;7099;53.922;10.728;2023-03-14T17:39:18;5.50;51.10
14049;DHT22;7099;53.922;10.728;2023-03-14T17:43:24;5.40;50.60
14049;DHT22;7099;53.922;10.728;2023-03-14T17:47:29;5.30;50.90
14049;DHT22;7099;53.922;10.728;2023-03-14T17:51:35;5.30;51.40
14049;DHT22;7099;53.922;10.728;2023-03-14T17:55:41;5.20;51.50
14049;DHT22;7099;53.922;10.728;2023-03-14T17:59:46;5.10;51.80
14049;DHT22;7099;53.922;10.728;2023-03-14T18:03:52;5.10;52.30
14049;DHT22;7099;53.922;10.728;2023-03-14T18:08:00;5.10;53.10
14049;DHT22;7099;53.922;10.728;2023-03-14T18:12:06;5.00;52.90
14049;DHT22;7099;53.922;10.728;2023-03-14T18:16:12;4.90;53.20
14049;DHT22;7099;53.922;10.728;2023-03-14T18:20:18;4.90;53.70
14049;DHT22;7099;53.922;10.728;2023-03-14T18:24:24;4.80;54.00
14049;DHT22;7099;53.922;10.728;2023-03-14T18:28:31;4.70;54.40
14049;DHT22;7099;53.922;10.728;2023-03-14T18:32:37;4.70;55.10
14049;DHT22;7099;53.922;10.728;2023-03-14T18:36:42;4.70;54.70
14049;DHT22;7099;53.922;10.728;2023-03-14T18:40:48;4.60;54.90
14049;DHT22;7099;53.922;10.728;2023-03-14T18:44:54;4.60;55.20
14049;DHT22;7099;53.922;10.728;2023-03-14T18:48:59;4.50;55.40
14049;DHT22;7099;53.922;10.728;2023-03-14T18:53:07;4.50;55.60
14049;DHT22;7099;53.922;10.728;2023-03-14T18:57:13;4.50;55.60
14049;DHT22;7099;53.922;10.728;2023-03-14T19:01:19;4.50;55.70
14049;DHT22;7099;53.922;10.728;2023-03-14T19:05:26;4.50;55.70
14049;DHT22;7099;53.922;10.728;2023-03-14T19:09:32;4.40;55.60
14049;DHT22;7099;53.922;10.728;2023-03-14T19:13:39;4.30;55.70
14049;DHT22;7099;53.922;10.728;2023-03-14T19:17:45;4.30;55.50
14049;DHT22;7099;53.922;10.728;2023-03-14T19:21:51;4.20;55.20
14049;DHT22;7099;53.922;10.728;2023-03-14T19:25:58;4.20;55.20
14049;DHT22;7099;53.922;10.728;2023-03-14T19:30:04;4.20;55.20
14049;DHT22;7099;53.922;10.728;2023-03-14T19:34:10;4.10;55.30
14049;DHT22;7099;53.922;10.728;2023-03-14T19:38:15;4.10;55.40
14049;DHT22;7099;53.922;10.728;2023-03-14T19:42:21;4.10;55.60
14049;DHT22;7099;53.922;10.728;2023-03-14T19:46:26;4.10;55.90
14049;DHT22;7099;53.922;10.728;2023-03-14T19:50:34;4.00;56.20
14049;DHT22;7099;53.922;10.728;2023-03-14T19:54:39;4.00;56.40
14049;DHT22;7099;53.922;10.728;2023-03-14T19:58:46;3.90;56.70
14049;DHT22;7099;53.922;10.728;2023-03-14T20:02:52;3.90;57.00
14049;DHT22;7099;53.922;10.728;2023-03-14T20:06:57;3.90;57.20
14049;DHT22;7099;53.922;10.728;2023-03-14T20:11:07;3.90;57.10
14049;DHT22;7099;53.922;10.728;2023-03-14T20:15:13;3.80;57.10
14049;DHT22;7099;53.922;10.728;2023-03-14T20:19:22;3.80;57.40
14049;DHT22;7099;53.922;10.728;2023-03-14T20:23:28;3.80;57.50
14049;DHT22;7099;53.922;10.728;2023-03-14T20:27:35;3.70;57.80
14049;DHT22;7099;53.922;10.728;2023-03-14T20:31:41;3.60;58.20
14049;DHT22;7099;53.922;10.728;2023-03-14T20:35:58;3.60;58.40
14049;DHT22;7099;53.922;10.728;2023-03-14T20:40:05;3.60;58.90
14049;DHT22;7099;53.922;10.728;2023-03-14T20:44:11;3.60;58.90
14049;DHT22;7099;53.922;10.728;2023-03-14T20:48:17;3.60;59.40
14049;DHT22;7099;53.922;10.728;2023-03-14T20:52:23;3.60;59.50
14049;DHT22;7099;53.922;10.728;2023-03-14T20:56:28;3.60;59.70
14049;DHT22;7099;53.922;10.728;2023-03-14T21:00:34;3.50;59.90
14049;DHT22;7099;53.922;10.728;2023-03-14T21:04:39;3.40;60.10
14049;DHT22;7099;53.922;10.728;2023-03-14T21:08:45;3.40;60.40
14049;DHT22;7099;53.922;10.728;2023-03-14T21:12:51;3.40;60.70
14049;DHT22;7099;53.922;10.728;2023-03-14T21:16:56;3.30;60.90
14049;DHT22;7099;53.922;10.728;2023-03-14T21:21:04;3.30;61.40
14049;DHT22;7099;53.922;10.728;2023-03-14T21:25:10;3.30;61.30
14049;DHT22;7099;53.922;10.728;2023-03-14T21:29:15;3.30;61.40
14049;DHT22;7099;53.922;10.728;2023-03-14T21:33:26;3.20;61.70
14049;DHT22;7099;53.922;10.728;2023-03-14T21:37:31;3.10;61.80
14049;DHT22;7099;53.922;10.728;2023-03-14T21:41:37;3.10;61.80
14049;DHT22;7099;53.922;10.728;2023-03-14T21:45:42;3.10;61.90
14049;DHT22;7099;53.922;10.728;2023-03-14T21:49:49;3.10;62.30
14049;DHT22;7099;53.922;10.728;2023-03-14T21:53:55;3.00;62.30
14049;DHT22;7099;53.922;10.728;2023-03-14T21:58:01;3.00;62.90
14049;DHT22;7099;53.922;10.728;2023-03-14T22:02:11;2.90;63.10
14049;DHT22;7099;53.922;10.728;2023-03-14T22:06:19;2.90;64.50
14049;DHT22;7099;53.922;10.728;2023-03-14T22:10:25;2.80;64.80
14049;DHT22;7099;53.922;10.728;2023-03-14T22:14:31;2.90;64.90
14049;DHT22;7099;53.922;10.728;2023-03-14T22:18:36;2.80;65.30
14049;DHT22;7099;53.922;10.728;2023-03-14T22:22:42;2.80;65.50
14049;DHT22;7099;53.922;10.728;2023-03-14T22:26:50;2.80;65.70
14049;DHT22;7099;53.922;10.728;2023-03-14T22:30:57;2.80;66.10
14049;DHT22;7099;53.922;10.728;2023-03-14T22:35:04;2.80;65.80
14049;DHT22;7099;53.922;10.728;2023-03-14T22:39:10;2.80;65.70
14049;DHT22;7099;53.922;10.728;2023-03-14T22:43:16;2.70;66.00
14049;DHT22;7099;53.922;10.728;2023-03-14T22:47:22;2.70;66.40
14049;DHT22;7099;53.922;10.728;2023-03-14T22:51:27;2.70;66.50
14049;DHT22;7099;53.922;10.728;2023-03-14T22:55:33;2.60;67.10
14049;DHT22;7099;53.922;10.728;2023-03-14T22:59:38;2.60;66.50
14049;DHT22;7099;53.922;10.728;2023-03-14T23:03:44;2.50;66.60
14049;DHT22;7099;53.922;10.728;2023-03-14T23:07:50;2.50;67.00
14049;DHT22;7099;53.922;10.728;2023-03-14T23:11:56;2.40;67.10
14049;DHT22;7099;53.922;10.728;2023-03-14T23:16:02;2.30;67.50
14049;DHT22;7099;53.922;10.728;2023-03-14T23:20:10;2.30;67.60
14049;DHT22;7099;53.922;10.728;2023-03-14T23:24:16;2.30;67.60
14049;DHT22;7099;53.922;10.728;2023-03-14T23:28:22;2.30;67.40
14049;DHT22;7099;53.922;10.728;2023-03-14T23:32:28;2.30;67.50
14049;DHT22;7099;53.922;10.728;2023-03-14T23:36:33;2.30;67.50
14049;DHT22;7099;53.922;10.728;2023-03-14T23:40:42;2.40;67.40
14049;DHT22;7099;53.922;10.728;2023-03-14T23:44:48;2.40;67.30
14049;DHT22;7099;53.922;10.728;2023-03-14T23:48:54;2.40;67.40
14049;DHT22;7099;53.922;10.728;2023-03-14T23:52:59;2.30;67.60
14049;DHT22;7099;53.922;10.728;2023-03-14T23:57:05;2.30;67.80
